sensor_id;sensor_type;location;lat;lon;timestamp;P1;durP1;ratioP1;P2;durP2;ratioP2
21488;SDS011;10906;45.194;5.684;2023-04-30T05:02:23;7.57;;;5.22;;
21488;SDS011;10906;45.194;5.684;2023-04-30T05:05:08;7.10;;;5.28;;
21488;SDS011;10906;45.194;5.684;2023-04-30T05:07:53;7.78;;;5.60;;
21488;SDS011;10906;45.194;5.684;2023-04-30T05:10:41;6.35;;;5.25;;
21488;SDS011;10906;45.194;5.684;2023-04-30T05:13:30;8.23;;;5.00;;
21488;SDS011;10906;45.194;5.684;2023-04-30T05:16:24;7.53;;;5.20;;
21488;SDS011;10906;45.194;5.684;2023-04-30T05:19:16;13.13;;;5.88;;
21488;SDS011;10906;45.194;5.684;2023-04-30T05:22:01;7.72;;;5.43;;
21488;SDS011;10906;45.194;5.684;2023-04-30T05:24:47;7.22;;;5.75;;
21488;SDS011;10906;45.194;5.684;2023-04-30T05:27:31;8.13;;;5.07;;
21488;SDS011;10906;45.194;5.684;2023-04-30T05:30:16;8.52;;;5.85;;
21488;SDS011;10906;45.194;5.684;2023-04-30T05:33:03;6.35;;;5.75;;
21488;SDS011;10906;45.194;5.684;2023-04-30T05:35:55;6.78;;;6.07;;
21488;SDS011;10906;45.194;5.684;2023-04-30T05:38:42;11.13;;;5.60;;
21488;SDS011;10906;45.194;5.684;2023-04-30T05:41:30;6.80;;;5.80;;
21488;SDS011;10906;45.194;5.684;2023-04-30T05:44:22;9.93;;;6.47;;
21488;SDS011;10906;45.194;5.684;2023-04-30T05:47:10;10.02;;;7.13;;
21488;SDS011;10906;45.194;5.684;2023-04-30T05:49:54;10.48;;;6.57;;
21488;SDS011;10906;45.194;5.684;2023-04-30T05:52:41;7.57;;;6.35;;
21488;SDS011;10906;45.194;5.684;2023-04-30T05:55:34;10.32;;;6.88;;
21488;SDS011;10906;45.194;5.684;2023-04-30T05:58:26;9.95;;;7.28;;
21488;SDS011;10906;45.194;5.684;2023-04-30T06:01:14;11.90;;;7.38;;
21488;SDS011;10906;45.194;5.684;2023-04-30T06:03:59;10.77;;;6.85;;
21488;SDS011;10906;45.194;5.684;2023-04-30T06:06:53;7.65;;;6.85;;
21488;SDS011;10906;45.194;5.684;2023-04-30T06:09:40;7.82;;;6.75;;
21488;SDS011;10906;45.194;5.684;2023-04-30T06:12:27;8.80;;;6.47;;
21488;SDS011;10906;45.194;5.684;2023-04-30T06:15:24;8.88;;;7.57;;
21488;SDS011;10906;45.194;5.684;2023-04-30T06:18:08;11.60;;;7.50;;
21488;SDS011;10906;45.194;5.684;2023-04-30T06:20:59;8.40;;;7.00;;
21488;SDS011;10906;45.194;5.684;2023-04-30T06:23:51;9.77;;;7.00;;
21488;SDS011;10906;45.194;5.684;2023-04-30T06:26:35;11.07;;;7.05;;
21488;SDS011;10906;45.194;5.684;2023-04-30T06:29:38;7.57;;;6.70;;
21488;SDS011;10906;45.194;5.684;2023-04-30T06:32:22;9.75;;;6.97;;
21488;SDS011;10906;45.194;5.684;2023-04-30T06:35:07;13.55;;;6.70;;
21488;SDS011;10906;45.194;5.684;2023-04-30T06:37:52;9.93;;;7.07;;
21488;SDS011;10906;45.194;5.684;2023-04-30T06:40:40;8.05;;;6.82;;
21488;SDS011;10906;45.194;5.684;2023-04-30T06:43:32;9.48;;;6.50;;
21488;SDS011;10906;45.194;5.684;2023-04-30T06:46:17;8.77;;;7.25;;
21488;SDS011;10906;45.194;5.684;2023-04-30T06:49:05;11.75;;;7.05;;
21488;SDS011;10906;45.194;5.684;2023-04-30T06:51:58;10.68;;;6.82;;
21488;SDS011;10906;45.194;5.684;2023-04-30T06:54:44;10.25;;;7.25;;
21488;SDS011;10906;45.194;5.684;2023-04-30T06:57:29;9.68;;;7.35;;
21488;SDS011;10906;45.194;5.684;2023-04-30T07:00:14;8.73;;;7.68;;
21488;SDS011;10906;45.194;5.684;2023-04-30T07:03:02;9.13;;;7.63;;
21488;SDS011;10906;45.194;5.684;2023-04-30T07:05:53;9.50;;;7.63;;
21488;SDS011;10906;45.194;5.684;2023-04-30T07:08:41;12.77;;;7.88;;
21488;SDS011;10906;45.194;5.684;2023-04-30T07:11:36;8.25;;;7.22;;
21488;SDS011;10906;45.194;5.684;2023-04-30T07:14:21;9.27;;;7.90;;
21488;SDS011;10906;45.194;5.684;2023-04-30T07:17:08;10.73;;;7.53;;
21488;SDS011;10906;45.194;5.684;2023-04-30T07:20:00;9.68;;;7.07;;
21488;SDS011;10906;45.194;5.684;2023-04-30T07:22:50;8.10;;;7.03;;
21488;SDS011;10906;45.194;5.684;2023-04-30T07:25:35;11.77;;;7.65;;
21488;SDS011;10906;45.194;5.684;2023-04-30T07:28:27;10.23;;;7.70;;
21488;SDS011;10906;45.194;5.684;2023-04-30T07:31:11;10.30;;;7.47;;
21488;SDS011;10906;45.194;5.684;2023-04-30T07:34:00;8.77;;;7.88;;
21488;SDS011;10906;45.194;5.684;2023-04-30T07:36:53;11.35;;;7.82;;
21488;SDS011;10906;45.194;5.684;2023-04-30T07:39:43;11.18;;;7.82;;
21488;SDS011;10906;45.194;5.684;2023-04-30T07:42:28;14.02;;;7.65;;
21488;SDS011;10906;45.194;5.684;2023-04-30T07:45:13;8.95;;;7.60;;
21488;SDS011;10906;45.194;5.684;2023-04-30T07:47:57;10.30;;;8.05;;
21488;SDS011;10906;45.194;5.684;2023-04-30T07:50:42;11.13;;;7.75;;
21488;SDS011;10906;45.194;5.684;2023-04-30T07:53:27;11.07;;;7.75;;
21488;SDS011;10906;45.194;5.684;2023-04-30T07:56:14;8.85;;;7.68;;
21488;SDS011;10906;45.194;5.684;2023-04-30T07:59:01;8.45;;;7.43;;
21488;SDS011;10906;45.194;5.684;2023-04-30T08:01:46;8.18;;;7.35;;
21488;SDS011;10906;45.194;5.684;2023-04-30T08:04:41;9.43;;;7.43;;
21488;SDS011;10906;45.194;5.684;2023-04-30T08:07:27;10.32;;;7.80;;
21488;SDS011;10906;45.194;5.684;2023-04-30T08:10:12;10.68;;;7.28;;
21488;SDS011;10906;45.194;5.684;2023-04-30T08:13:08;7.40;;;6.70;;
21488;SDS011;10906;45.194;5.684;2023-04-30T08:16:01;10.65;;;7.05;;
21488;SDS011;10906;45.194;5.684;2023-04-30T08:18:45;8.27;;;7.07;;
21488;SDS011;10906;45.194;5.684;2023-04-30T08:21:55;8.90;;;6.57;;
21488;SDS011;10906;45.194;5.684;2023-04-30T08:25:10;7.57;;;6.82;;
21488;SDS011;10906;45.194;5.684;2023-04-30T08:28:09;9.50;;;6.88;;
21488;SDS011;10906;45.194;5.684;2023-04-30T08:31:40;8.45;;;7.10;;
21488;SDS011;10906;45.194;5.684;2023-04-30T08:34:25;9.98;;;6.25;;
21488;SDS011;10906;45.194;5.684;2023-04-30T08:37:18;8.18;;;6.40;;
21488;SDS011;10906;45.194;5.684;2023-04-30T08:40:03;8.85;;;6.97;;
21488;SDS011;10906;45.194;5.684;2023-04-30T08:46:35;7.10;;;6.40;;
21488;SDS011;10906;45.194;5.684;2023-04-30T08:50:18;7.40;;;6.70;;
21488;SDS011;10906;45.194;5.684;2023-04-30T08:53:07;7.07;;;6.38;;
21488;SDS011;10906;45.194;5.684;2023-04-30T08:59:54;9.40;;;6.90;;
21488;SDS011;10906;45.194;5.684;2023-04-30T09:02:42;7.60;;;6.80;;
21488;SDS011;10906;45.194;5.684;2023-04-30T09:09:29;8.07;;;7.05;;
21488;SDS011;10906;45.194;5.684;2023-04-30T09:12:59;7.45;;;6.55;;
21488;SDS011;10906;45.194;5.684;2023-04-30T09:15:49;9.18;;;7.22;;
21488;SDS011;10906;45.194;5.684;2023-04-30T09:18:38;8.23;;;7.40;;
21488;SDS011;10906;45.194;5.684;2023-04-30T09:25:09;10.57;;;7.03;;
21488;SDS011;10906;45.194;5.684;2023-04-30T09:31:18;9.00;;;6.10;;
21488;SDS011;10906;45.194;5.684;2023-04-30T09:34:06;8.02;;;7.00;;
21488;SDS011;10906;45.194;5.684;2023-04-30T09:40:40;9.25;;;7.60;;
21488;SDS011;10906;45.194;5.684;2023-04-30T09:43:28;10.30;;;6.55;;
21488;SDS011;10906;45.194;5.684;2023-04-30T09:46:19;8.77;;;6.53;;
21488;SDS011;10906;45.194;5.684;2023-04-30T09:49:05;8.18;;;7.20;;
21488;SDS011;10906;45.194;5.684;2023-04-30T09:51:56;7.82;;;7.03;;
21488;SDS011;10906;45.194;5.684;2023-04-30T09:54:42;8.90;;;6.97;;
21488;SDS011;10906;45.194;5.684;2023-04-30T09:57:27;9.15;;;7.35;;
21488;SDS011;10906;45.194;5.684;2023-04-30T10:00:15;10.05;;;7.43;;
21488;SDS011;10906;45.194;5.684;2023-04-30T10:03:07;8.43;;;7.13;;
21488;SDS011;10906;45.194;5.684;2023-04-30T10:06:11;8.65;;;6.43;;
21488;SDS011;10906;45.194;5.684;2023-04-30T10:08:59;11.25;;;7.13;;
21488;SDS011;10906;45.194;5.684;2023-04-30T10:11:51;10.75;;;7.10;;
21488;SDS011;10906;45.194;5.684;2023-04-30T10:14:39;9.88;;;6.72;;
21488;SDS011;10906;45.194;5.684;2023-04-30T10:21:03;8.85;;;7.07;;
21488;SDS011;10906;45.194;5.684;2023-04-30T10:23:55;9.75;;;7.10;;
21488;SDS011;10906;45.194;5.684;2023-04-30T10:26:44;8.40;;;7.53;;
21488;SDS011;10906;45.194;5.684;2023-04-30T10:30:12;8.75;;;7.35;;
21488;SDS011;10906;45.194;5.684;2023-04-30T10:40:47;10.30;;;7.78;;
21488;SDS011;10906;45.194;5.684;2023-04-30T10:43:31;13.35;;;7.63;;
21488;SDS011;10906;45.194;5.684;2023-04-30T10:46:39;11.77;;;8.52;;
21488;SDS011;10906;45.194;5.684;2023-04-30T10:49:30;12.18;;;7.35;;
21488;SDS011;10906;45.194;5.684;2023-04-30T10:52:17;8.43;;;7.55;;
21488;SDS011;10906;45.194;5.684;2023-04-30T10:55:10;9.60;;;7.47;;
21488;SDS011;10906;45.194;5.684;2023-04-30T10:58:01;13.93;;;8.23;;
21488;SDS011;10906;45.194;5.684;2023-04-30T11:07:50;8.18;;;7.20;;
21488;SDS011;10906;45.194;5.684;2023-04-30T11:10:55;9.00;;;8.00;;
21488;SDS011;10906;45.194;5.684;2023-04-30T11:13:47;11.63;;;7.22;;
21488;SDS011;10906;45.194;5.684;2023-04-30T11:16:42;9.00;;;7.97;;
21488;SDS011;10906;45.194;5.684;2023-04-30T11:19:27;8.88;;;7.93;;
21488;SDS011;10906;45.194;5.684;2023-04-30T11:25:04;11.48;;;8.63;;
21488;SDS011;10906;45.194;5.684;2023-04-30T11:27:55;14.85;;;10.23;;
21488;SDS011;10906;45.194;5.684;2023-04-30T11:30:56;12.75;;;8.95;;
21488;SDS011;10906;45.194;5.684;2023-04-30T11:33:41;12.02;;;8.60;;
21488;SDS011;10906;45.194;5.684;2023-04-30T11:36:28;11.55;;;8.93;;
21488;SDS011;10906;45.194;5.684;2023-04-30T11:39:15;9.52;;;8.48;;
21488;SDS011;10906;45.194;5.684;2023-04-30T11:42:06;10.27;;;9.07;;
21488;SDS011;10906;45.194;5.684;2023-04-30T11:45:03;10.77;;;9.23;;
21488;SDS011;10906;45.194;5.684;2023-04-30T11:47:49;10.40;;;8.80;;
21488;SDS011;10906;45.194;5.684;2023-04-30T11:50:40;11.07;;;8.93;;
21488;SDS011;10906;45.194;5.684;2023-04-30T11:53:26;12.75;;;8.85;;
21488;SDS011;10906;45.194;5.684;2023-04-30T11:56:12;9.55;;;8.57;;
21488;SDS011;10906;45.194;5.684;2023-04-30T11:59:08;9.90;;;8.90;;
21488;SDS011;10906;45.194;5.684;2023-04-30T12:01:53;9.85;;;8.80;;
21488;SDS011;10906;45.194;5.684;2023-04-30T12:04:40;12.23;;;9.88;;
21488;SDS011;10906;45.194;5.684;2023-04-30T12:07:28;12.27;;;8.60;;
21488;SDS011;10906;45.194;5.684;2023-04-30T12:10:13;12.80;;;9.45;;
21488;SDS011;10906;45.194;5.684;2023-04-30T12:13:12;11.88;;;9.05;;
21488;SDS011;10906;45.194;5.684;2023-04-30T12:15:59;11.98;;;9.13;;
21488;SDS011;10906;45.194;5.684;2023-04-30T12:18:44;13.10;;;9.57;;
21488;SDS011;10906;45.194;5.684;2023-04-30T12:21:32;13.43;;;9.38;;
21488;SDS011;10906;45.194;5.684;2023-04-30T12:24:19;10.90;;;9.32;;
21488;SDS011;10906;45.194;5.684;2023-04-30T12:27:06;12.05;;;9.50;;
21488;SDS011;10906;45.194;5.684;2023-04-30T12:30:01;11.98;;;10.15;;
21488;SDS011;10906;45.194;5.684;2023-04-30T12:32:52;13.75;;;10.30;;
21488;SDS011;10906;45.194;5.684;2023-04-30T12:35:41;12.00;;;9.73;;
21488;SDS011;10906;45.194;5.684;2023-04-30T12:38:26;13.98;;;10.40;;
21488;SDS011;10906;45.194;5.684;2023-04-30T12:41:18;11.55;;;9.25;;
21488;SDS011;10906;45.194;5.684;2023-04-30T12:47:06;12.43;;;10.95;;
21488;SDS011;10906;45.194;5.684;2023-04-30T12:49:52;11.38;;;10.18;;
21488;SDS011;10906;45.194;5.684;2023-04-30T12:52:37;14.02;;;10.85;;
21488;SDS011;10906;45.194;5.684;2023-04-30T12:55:32;13.30;;;11.25;;
21488;SDS011;10906;45.194;5.684;2023-04-30T12:58:20;14.38;;;11.20;;
21488;SDS011;10906;45.194;5.684;2023-04-30T13:01:09;14.07;;;11.02;;
21488;SDS011;10906;45.194;5.684;2023-04-30T13:04:03;13.68;;;10.55;;
21488;SDS011;10906;45.194;5.684;2023-04-30T13:06:47;15.80;;;10.93;;
21488;SDS011;10906;45.194;5.684;2023-04-30T13:09:32;12.00;;;9.93;;
21488;SDS011;10906;45.194;5.684;2023-04-30T13:12:21;15.30;;;11.25;;
21488;SDS011;10906;45.194;5.684;2023-04-30T13:15:05;14.23;;;10.60;;
21488;SDS011;10906;45.194;5.684;2023-04-30T13:17:50;12.88;;;10.38;;
21488;SDS011;10906;45.194;5.684;2023-04-30T13:20:35;13.70;;;10.07;;
21488;SDS011;10906;45.194;5.684;2023-04-30T13:23:22;12.38;;;10.82;;
21488;SDS011;10906;45.194;5.684;2023-04-30T13:26:07;12.88;;;10.63;;
21488;SDS011;10906;45.194;5.684;2023-04-30T13:29:00;13.25;;;9.88;;
21488;SDS011;10906;45.194;5.684;2023-04-30T13:31:49;11.23;;;10.00;;
21488;SDS011;10906;45.194;5.684;2023-04-30T13:34:41;14.23;;;10.27;;
21488;SDS011;10906;45.194;5.684;2023-04-30T13:37:29;14.68;;;10.65;;
21488;SDS011;10906;45.194;5.684;2023-04-30T13:40:14;12.02;;;10.50;;
21488;SDS011;10906;45.194;5.684;2023-04-30T13:43:05;11.48;;;10.20;;
21488;SDS011;10906;45.194;5.684;2023-04-30T13:49:04;15.77;;;10.52;;
21488;SDS011;10906;45.194;5.684;2023-04-30T13:51:48;13.35;;;10.02;;
21488;SDS011;10906;45.194;5.684;2023-04-30T13:54:33;12.40;;;10.63;;
21488;SDS011;10906;45.194;5.684;2023-04-30T13:57:23;13.60;;;10.27;;
21488;SDS011;10906;45.194;5.684;2023-04-30T14:00:08;11.07;;;9.90;;
21488;SDS011;10906;45.194;5.684;2023-04-30T14:02:53;14.48;;;10.95;;
21488;SDS011;10906;45.194;5.684;2023-04-30T14:05:38;12.55;;;9.63;;
21488;SDS011;10906;45.194;5.684;2023-04-30T14:08:26;11.15;;;9.95;;
21488;SDS011;10906;45.194;5.684;2023-04-30T14:11:10;10.90;;;9.80;;
21488;SDS011;10906;45.194;5.684;2023-04-30T14:14:04;11.53;;;9.80;;
21488;SDS011;10906;45.194;5.684;2023-04-30T14:16:51;14.40;;;10.88;;
21488;SDS011;10906;45.194;5.684;2023-04-30T14:19:40;12.60;;;9.93;;
21488;SDS011;10906;45.194;5.684;2023-04-30T14:22:27;11.45;;;9.68;;
21488;SDS011;10906;45.194;5.684;2023-04-30T14:25:12;10.48;;;8.63;;
21488;SDS011;10906;45.194;5.684;2023-04-30T14:27:59;11.95;;;9.32;;
21488;SDS011;10906;45.194;5.684;2023-04-30T14:30:47;10.20;;;8.88;;
21488;SDS011;10906;45.194;5.684;2023-04-30T14:33:39;13.32;;;10.57;;
21488;SDS011;10906;45.194;5.684;2023-04-30T14:36:23;11.55;;;9.43;;
21488;SDS011;10906;45.194;5.684;2023-04-30T14:39:15;10.88;;;9.07;;
21488;SDS011;10906;45.194;5.684;2023-04-30T14:42:05;11.75;;;9.57;;
21488;SDS011;10906;45.194;5.684;2023-04-30T14:48:36;10.27;;;9.20;;
21488;SDS011;10906;45.194;5.684;2023-04-30T14:51:22;10.30;;;8.20;;
21488;SDS011;10906;45.194;5.684;2023-04-30T14:54:06;11.15;;;8.35;;
21488;SDS011;10906;45.194;5.684;2023-04-30T14:56:51;10.30;;;8.40;;
21488;SDS011;10906;45.194;5.684;2023-04-30T14:59:42;12.88;;;8.68;;
21488;SDS011;10906;45.194;5.684;2023-04-30T15:05:40;12.18;;;9.00;;
21488;SDS011;10906;45.194;5.684;2023-04-30T15:08:25;10.10;;;9.10;;
21488;SDS011;10906;45.194;5.684;2023-04-30T15:11:18;11.77;;;9.52;;
21488;SDS011;10906;45.194;5.684;2023-04-30T15:17:26;9.35;;;8.45;;
21488;SDS011;10906;45.194;5.684;2023-04-30T15:20:14;10.02;;;8.90;;
21488;SDS011;10906;45.194;5.684;2023-04-30T15:23:01;9.82;;;8.82;;
21488;SDS011;10906;45.194;5.684;2023-04-30T15:25:46;10.18;;;9.13;;
21488;SDS011;10906;45.194;5.684;2023-04-30T15:28:33;10.55;;;8.38;;
21488;SDS011;10906;45.194;5.684;2023-04-30T15:34:46;11.00;;;9.95;;
21488;SDS011;10906;45.194;5.684;2023-04-30T15:38:33;10.07;;;9.00;;
21488;SDS011;10906;45.194;5.684;2023-04-30T15:41:21;9.80;;;8.80;;
21488;SDS011;10906;45.194;5.684;2023-04-30T16:00:32;10.77;;;9.27;;
21488;SDS011;10906;45.194;5.684;2023-04-30T16:27:32;10.43;;;8.80;;
21488;SDS011;10906;45.194;5.684;2023-04-30T20:01:52;12.93;;;8.55;;
21488;SDS011;10906;45.194;5.684;2023-04-30T20:04:48;10.50;;;8.93;;
21488;SDS011;10906;45.194;5.684;2023-04-30T20:07:35;11.98;;;8.25;;
21488;SDS011;10906;45.194;5.684;2023-04-30T20:10:24;9.60;;;8.60;;
21488;SDS011;10906;45.194;5.684;2023-04-30T20:13:11;13.20;;;9.98;;
21488;SDS011;10906;45.194;5.684;2023-04-30T20:16:03;14.32;;;10.90;;
21488;SDS011;10906;45.194;5.684;2023-04-30T20:18:48;13.57;;;10.85;;
21488;SDS011;10906;45.194;5.684;2023-04-30T20:21:41;14.27;;;11.88;;
21488;SDS011;10906;45.194;5.684;2023-04-30T20:24:26;12.40;;;11.10;;
21488;SDS011;10906;45.194;5.684;2023-04-30T20:27:11;14.55;;;12.18;;
21488;SDS011;10906;45.194;5.684;2023-04-30T20:29:55;15.38;;;13.10;;
21488;SDS011;10906;45.194;5.684;2023-04-30T20:32:46;15.00;;;12.82;;
21488;SDS011;10906;45.194;5.684;2023-04-30T20:35:30;16.55;;;12.57;;
21488;SDS011;10906;45.194;5.684;2023-04-30T20:38:15;14.73;;;11.93;;
21488;SDS011;10906;45.194;5.684;2023-04-30T20:41:00;14.55;;;11.65;;
21488;SDS011;10906;45.194;5.684;2023-04-30T20:43:44;13.48;;;12.07;;
21488;SDS011;10906;45.194;5.684;2023-04-30T20:46:32;14.40;;;11.95;;
21488;SDS011;10906;45.194;5.684;2023-04-30T20:49:19;13.23;;;11.75;;
21488;SDS011;10906;45.194;5.684;2023-04-30T20:52:06;19.05;;;13.68;;
21488;SDS011;10906;45.194;5.684;2023-04-30T20:54:57;18.73;;;16.52;;
21488;SDS011;10906;45.194;5.684;2023-04-30T20:57:42;22.45;;;17.45;;
21488;SDS011;10906;45.194;5.684;2023-04-30T21:00:27;21.20;;;17.70;;
21488;SDS011;10906;45.194;5.684;2023-04-30T21:03:12;26.42;;;17.50;;
21488;SDS011;10906;45.194;5.684;2023-04-30T21:05:57;19.30;;;16.67;;
21488;SDS011;10906;45.194;5.684;2023-04-30T21:08:42;23.02;;;17.02;;
21488;SDS011;10906;45.194;5.684;2023-04-30T21:11:27;19.63;;;16.00;;
21488;SDS011;10906;45.194;5.684;2023-04-30T21:17:05;18.77;;;16.30;;
21488;SDS011;10906;45.194;5.684;2023-04-30T21:19:58;17.83;;;15.23;;
21488;SDS011;10906;45.194;5.684;2023-04-30T21:22:50;20.35;;;15.23;;
21488;SDS011;10906;45.194;5.684;2023-04-30T21:25:37;18.42;;;14.55;;
21488;SDS011;10906;45.194;5.684;2023-04-30T21:28:30;15.80;;;13.00;;
21488;SDS011;10906;45.194;5.684;2023-04-30T21:31:16;15.93;;;14.00;;
21488;SDS011;10906;45.194;5.684;2023-04-30T21:34:08;15.02;;;12.75;;
21488;SDS011;10906;45.194;5.684;2023-04-30T21:36:53;16.00;;;12.57;;
21488;SDS011;10906;45.194;5.684;2023-04-30T21:39:37;15.05;;;11.80;;
21488;SDS011;10906;45.194;5.684;2023-04-30T21:42:27;17.90;;;13.73;;
21488;SDS011;10906;45.194;5.684;2023-04-30T21:45:14;14.73;;;12.43;;
21488;SDS011;10906;45.194;5.684;2023-04-30T21:48:06;15.13;;;12.35;;
21488;SDS011;10906;45.194;5.684;2023-04-30T21:50:50;16.38;;;10.90;;
21488;SDS011;10906;45.194;5.684;2023-04-30T21:53:35;15.18;;;10.57;;
21488;SDS011;10906;45.194;5.684;2023-04-30T21:56:20;11.57;;;10.32;;
21488;SDS011;10906;45.194;5.684;2023-04-30T21:59:12;12.85;;;9.20;;
